Time;durP1;ratioP1;P1;durP2;ratioP2;P2;SDS_P1;SDS_P2;PMS_P1;PMS_P2;Temp;Humidity;BMP_temperature;BMP_pressure;BME280_temperature;BME280_humidity;BME280_pressure;Samples;Min_cycle;Max_cycle;Signal;HPM_P1;HPM_P2
2023/03/10 00:00:21;;;;;;;3.50;1.50;;;;;;;4.50;71.39;98873.41;105301;1260;65242;-52
2023/03/10 00:02:49;;;;;;;6.10;3.30;;;;;;;4.40;71.61;98871.94;105456;1256;62413;-53
2023/03/10 00:05:17;;;;;;;4.80;1.50;;;;;;;4.37;71.72;98882.94;105364;1260;64878;-54
2023/03/10 00:07:46;;;;;;;3.50;1.30;;;;;;;4.35;71.58;98873.86;105436;1260;59653;-53
2023/03/10 00:10:13;;;;;;;2.60;0.80;;;;;;;4.31;71.55;98871.08;105373;1256;59647;-52
2023/03/10 00:12:42;;;;;;;4.10;1.70;;;;;;;4.25;71.62;98883.53;105369;1260;65102;-52
2023/03/10 00:15:10;;;;;;;3.20;1.10;;;;;;;4.15;71.17;98886.73;105573;1256;62414;-52
2023/03/10 00:17:39;;;;;;;3.10;0.90;;;;;;;4.15;71.14;98897.27;105385;1256;63635;-53
2023/03/10 00:20:10;;;;;;;3.30;1.00;;;;;;;4.09;71.19;98902.07;105384;1261;59718;-53
2023/03/10 00:22:40;;;;;;;4.00;1.50;;;;;;;4.05;71.26;98898.09;105441;1256;59766;-53
2023/03/10 00:25:09;;;;;;;3.30;1.10;;;;;;;4.02;71.03;98898.15;105329;1260;65117;-53
2023/03/10 00:27:36;;;;;;;3.40;1.30;;;;;;;4.02;71.05;98902.99;105493;1256;62408;-52
2023/03/10 00:30:03;;;;;;;3.20;1.00;;;;;;;3.96;71.03;98902.92;105318;1257;64889;-51
2023/03/10 00:32:33;;;;;;;1.50;0.30;;;;;;;3.87;70.70;98904.13;105397;1258;59675;-50
2023/03/10 00:34:59;;;;;;;2.40;0.70;;;;;;;3.82;70.62;98916.62;105315;1256;59684;-51
2023/03/10 00:37:27;;;;;;;1.50;0.40;;;;;;;3.78;70.77;98915.04;105336;1257;64432;-52
2023/03/10 00:39:54;;;;;;;3.80;1.30;;;;;;;3.72;70.89;98917.89;105470;1256;62847;-52
2023/03/10 00:42:21;;;;;;;2.60;0.80;;;;;;;3.74;70.93;98926.98;105616;1257;65130;-53
2023/03/10 00:44:48;;;;;;;3.90;0.90;;;;;;;3.75;71.00;98927.02;105287;1261;60842;-52
2023/03/10 00:47:15;;;;;;;3.70;0.90;;;;;;;3.75;71.04;98929.52;105424;1256;59658;-53
2023/03/10 00:49:42;;;;;;;2.70;1.20;;;;;;;3.70;71.05;98940.58;105475;1256;65267;-52
2023/03/10 00:52:11;;;;;;;2.20;0.70;;;;;;;3.68;71.09;98942.66;105425;1256;71443;-53
2023/03/10 00:54:40;;;;;;;4.80;1.50;;;;;;;3.68;71.01;98950.60;105389;1260;63881;-52
2023/03/10 00:57:07;;;;;;;3.30;1.00;;;;;;;3.64;71.02;98962.88;105544;1260;59679;-53
2023/03/10 00:59:36;;;;;;;4.80;1.10;;;;;;;3.58;71.26;98973.09;105437;1256;59701;-53
2023/03/10 01:02:18;;;;;;;2.50;0.80;;;;;;;3.58;71.46;98987.30;105365;1260;65429;-52
2023/03/10 01:04:46;;;;;;;2.80;0.80;;;;;;;3.62;71.51;99001.72;105333;1260;61830;-53
2023/03/10 01:07:15;;;;;;;3.20;1.10;;;;;;;3.62;71.49;99009.71;105395;1256;65077;-54
2023/03/10 01:09:43;;;;;;;2.10;0.70;;;;;;;3.56;71.31;99012.91;105372;1256;60627;-52
2023/03/10 01:12:12;;;;;;;3.70;1.20;;;;;;;3.50;71.37;99019.20;105422;1255;60563;-53
2023/03/10 01:14:39;;;;;;;3.00;0.80;;;;;;;3.50;71.29;99023.08;105332;1260;74736;-54
2023/03/10 01:17:07;;;;;;;3.10;0.70;;;;;;;3.45;71.29;99030.35;105451;1260;61640;-52
2023/03/10 01:19:34;;;;;;;2.80;0.80;;;;;;;3.38;71.47;99031.17;105385;1256;64739;-52
2023/03/10 01:22:01;;;;;;;4.00;1.10;;;;;;;3.38;71.36;99040.41;105480;1260;60445;-51
2023/03/10 01:24:28;;;;;;;2.10;0.70;;;;;;;3.40;71.41;99049.95;105291;1257;60498;-51
2023/03/10 01:26:55;;;;;;;3.10;0.70;;;;;;;3.34;71.38;99059.05;105392;1256;66162;-51
2023/03/10 01:29:22;;;;;;;3.20;0.70;;;;;;;3.28;71.47;99068.48;105344;1256;70928;-53
2023/03/10 01:31:49;;;;;;;3.20;1.10;;;;;;;3.29;71.55;99075.68;105450;1256;64978;-54
2023/03/10 01:34:17;;;;;;;1.90;0.50;;;;;;;3.32;71.74;99080.52;105713;1257;61744;-51
2023/03/10 01:36:44;;;;;;;2.90;1.00;;;;;;;3.30;72.01;99086.00;105312;1257;60569;-54
2023/03/10 01:39:12;;;;;;;1.90;0.60;;;;;;;3.29;72.11;99089.77;105298;1259;74608;-52
2023/03/10 01:41:40;;;;;;;2.00;0.50;;;;;;;3.31;71.97;99095.83;105449;1256;62341;-53
2023/03/10 01:44:18;;;;;;;3.50;0.80;;;;;;;3.30;71.98;99095.02;105374;1256;64950;-53
2023/03/10 01:46:50;;;;;;;3.40;0.90;;;;;;;3.28;72.13;99101.44;105452;1256;60459;-51
2023/03/10 01:49:48;;;;;;;2.20;0.50;;;;;;;3.27;72.03;99107.02;105422;1260;60438;-52
2023/03/10 01:52:21;;;;;;;3.10;1.00;;;;;;;3.29;71.85;99115.89;105518;1257;65023;-53
2023/03/10 01:54:51;;;;;;;1.90;0.50;;;;;;;3.25;71.83;99121.76;105384;1256;62391;-52
2023/03/10 01:57:21;;;;;;;2.20;0.80;;;;;;;3.18;71.73;99126.00;105501;1259;64905;-53
2023/03/10 01:59:49;;;;;;;2.50;0.60;;;;;;;3.14;71.34;99130.42;105208;1256;60486;-52
2023/03/10 02:02:17;;;;;;;2.90;0.80;;;;;;;3.11;71.19;99134.48;105366;1259;60486;-51
2023/03/10 02:04:49;;;;;;;2.50;0.60;;;;;;;3.01;70.93;99135.52;105355;1260;65843;-52
2023/03/10 02:07:25;;;;;;;1.80;0.80;;;;;;;2.98;71.14;99142.98;105350;1256;62636;-52
2023/03/10 02:09:53;;;;;;;3.80;1.40;;;;;;;2.99;71.08;99151.07;105305;1256;64967;-53
2023/03/10 02:12:20;;;;;;;3.20;0.90;;;;;;;2.92;71.17;99151.70;105082;1257;61739;-51
2023/03/10 02:14:51;;;;;;;3.40;1.00;;;;;;;2.86;71.18;99154.41;105332;1257;61078;-52
2023/03/10 02:17:20;;;;;;;4.60;0.90;;;;;;;2.84;71.23;99161.63;105419;1260;65980;-53
2023/03/10 02:20:12;;;;;;;3.00;0.80;;;;;;;2.82;71.02;99172.85;105331;1261;61664;-52
2023/03/10 02:22:40;;;;;;;3.20;0.80;;;;;;;2.74;70.99;99180.27;105377;1260;64983;-51
2023/03/10 02:25:43;;;;;;;2.00;0.60;;;;;;;2.64;71.10;99184.56;105292;1256;61812;-51
2023/03/10 02:28:14;;;;;;;2.00;0.40;;;;;;;2.64;70.95;99194.64;105158;1258;60549;-52
2023/03/10 02:30:49;;;;;;;3.10;0.90;;;;;;;2.63;70.94;99206.48;105418;1256;66132;-52
2023/03/10 02:33:27;;;;;;;2.10;1.00;;;;;;;2.56;71.04;99216.77;105427;1256;62335;-52
2023/03/10 02:36:02;;;;;;;2.10;0.50;;;;;;;2.55;70.79;99221.35;105408;1256;65380;-51
2023/03/10 02:38:29;;;;;;;3.40;1.00;;;;;;;2.52;70.40;99232.79;105219;1257;60497;-53
2023/03/10 02:40:56;;;;;;;2.00;0.30;;;;;;;2.51;70.45;99238.41;105427;1256;60658;-53
2023/03/10 02:43:27;;;;;;;3.00;0.80;;;;;;;2.47;70.75;99247.15;105393;1256;66278;-52
2023/03/10 02:46:01;;;;;;;2.60;0.70;;;;;;;2.49;70.52;99247.04;105435;1262;61509;-52
2023/03/10 02:48:31;;;;;;;3.00;0.90;;;;;;;2.49;70.39;99254.67;105425;1256;73380;-51
2023/03/10 02:51:01;;;;;;;3.00;0.80;;;;;;;2.44;70.78;99257.24;105429;1256;60563;-50
2023/03/10 02:53:29;;;;;;;2.50;0.90;;;;;;;2.38;70.56;99262.10;105184;1263;61193;-51
2023/03/10 02:55:56;;;;;;;3.00;1.10;;;;;;;2.34;70.07;99265.27;105472;1260;74478;-51
2023/03/10 02:58:24;;;;;;;4.10;1.10;;;;;;;2.35;70.16;99268.31;105425;1256;71368;-50
2023/03/10 03:00:51;;;;;;;2.10;0.40;;;;;;;2.26;70.17;99271.88;105313;1256;73367;-52
2023/03/10 03:03:19;;;;;;;2.30;0.80;;;;;;;2.27;69.76;99268.86;105428;1256;61484;-51
2023/03/10 03:05:48;;;;;;;2.40;0.70;;;;;;;2.29;69.62;99273.21;105376;1256;60532;-53
2023/03/10 03:08:18;;;;;;;4.50;1.10;;;;;;;2.27;69.56;99267.66;105506;1259;66247;-52
2023/03/10 03:10:46;;;;;;;2.30;0.90;;;;;;;2.24;69.28;99271.96;105348;1257;71370;-54
2023/03/10 03:13:13;;;;;;;2.30;0.50;;;;;;;2.27;68.91;99270.05;105417;1255;73662;-52
2023/03/10 03:15:40;;;;;;;5.10;1.90;;;;;;;2.28;68.62;99272.77;105218;1256;60842;-53
2023/03/10 03:18:09;;;;;;;3.00;1.00;;;;;;;2.28;68.64;99276.39;105350;1256;61360;-54
2023/03/10 03:20:37;;;;;;;2.00;0.80;;;;;;;2.24;68.86;99283.21;105395;1260;75091;-52
2023/03/10 03:23:08;;;;;;;2.30;0.60;;;;;;;2.23;68.70;99293.48;105351;1259;62493;-52
2023/03/10 03:25:37;;;;;;;2.70;0.70;;;;;;;2.27;68.77;99299.14;105372;1257;73662;-52
2023/03/10 03:28:11;;;;;;;2.90;0.70;;;;;;;2.22;68.76;99300.31;105239;1256;60546;-54
2023/03/10 03:30:39;;;;;;;2.90;0.70;;;;;;;2.30;68.38;99303.44;105619;1260;61774;-52
2023/03/10 03:33:06;;;;;;;3.30;0.70;;;;;;;2.18;68.26;99304.00;105546;1255;74752;-53
2023/03/10 03:35:35;;;;;;;2.70;0.50;;;;;;;2.17;68.59;99312.02;105501;1260;71355;-53
2023/03/10 03:38:03;;;;;;;1.90;0.60;;;;;;;2.17;68.71;99322.10;105688;1260;73695;-51
2023/03/10 03:40:32;;;;;;;5.10;0.80;;;;;;;2.25;68.28;99328.83;105581;1256;60489;-52
2023/03/10 03:42:59;;;;;;;2.00;0.50;;;;;;;2.28;67.90;99330.58;105573;1256;61215;-53
2023/03/10 03:45:28;;;;;;;2.30;0.60;;;;;;;2.34;67.94;99334.36;105310;1255;74634;-54
2023/03/10 03:47:55;;;;;;;2.30;1.00;;;;;;;2.30;67.60;99332.34;105447;1256;70962;-52
2023/03/10 03:50:22;;;;;;;3.00;0.70;;;;;;;2.25;67.20;99338.05;105418;1256;73602;-53
2023/03/10 03:52:50;;;;;;;2.50;0.70;;;;;;;2.12;67.29;99343.16;105334;1256;60633;-53
2023/03/10 03:55:18;;;;;;;1.60;0.60;;;;;;;2.05;67.49;99351.20;105308;1256;60496;-54
2023/03/10 03:57:46;;;;;;;2.50;0.50;;;;;;;2.07;67.62;99349.14;105517;1260;74746;-52
2023/03/10 04:00:18;;;;;;;1.70;0.90;;;;;;;2.18;66.99;99359.38;105404;1261;71331;-54
2023/03/10 04:02:46;;;;;;;2.30;0.60;;;;;;;2.26;66.90;99364.77;105345;1260;63713;-53
2023/03/10 04:05:19;;;;;;;3.00;1.00;;;;;;;2.16;67.21;99367.80;105309;1256;60600;-53
2023/03/10 04:07:48;;;;;;;2.90;1.00;;;;;;;2.04;67.57;99373.70;105506;1256;60580;-53
2023/03/10 04:10:19;;;;;;;2.30;0.40;;;;;;;1.98;67.57;99370.44;105337;1260;74573;-53
2023/03/10 04:12:47;;;;;;;2.90;0.70;;;;;;;2.01;67.57;99377.85;105521;1256;70987;-52
2023/03/10 04:15:14;;;;;;;2.60;0.80;;;;;;;2.04;67.50;99381.50;105475;1260;73558;-53
2023/03/10 04:17:42;;;;;;;3.40;1.00;;;;;;;2.02;67.34;99387.20;105373;1256;60568;-52
2023/03/10 04:20:13;;;;;;;3.50;1.00;;;;;;;1.97;67.25;99385.39;105281;1256;61331;-53
2023/03/10 04:22:43;;;;;;;11.20;1.40;;;;;;;2.01;67.37;99391.58;105415;1261;73902;-52
2023/03/10 04:25:10;;;;;;;4.80;1.30;;;;;;;2.05;67.07;99390.61;105340;1256;70089;-53
2023/03/10 04:27:39;;;;;;;4.10;1.00;;;;;;;2.07;67.04;99388.95;105274;1256;73686;-53
2023/03/10 04:30:09;;;;;;;4.20;0.90;;;;;;;2.04;67.02;99393.98;105430;1256;60527;-53
2023/03/10 04:32:39;;;;;;;2.40;0.80;;;;;;;2.02;67.14;99395.81;105322;1256;60495;-53
2023/03/10 04:35:07;;;;;;;3.80;1.10;;;;;;;2.05;67.13;99397.00;105446;1256;75080;-54
2023/03/10 04:37:39;;;;;;;2.80;0.70;;;;;;;2.10;66.91;99389.80;105420;1256;63036;-54
2023/03/10 04:40:11;;;;;;;3.40;1.80;;;;;;;2.11;66.88;99389.43;105415;1257;73770;-53
2023/03/10 04:42:38;;;;;;;2.50;1.30;;;;;;;2.09;66.41;99391.25;105364;1256;60637;-53
2023/03/10 04:45:06;;;;;;;2.20;0.70;;;;;;;2.08;66.61;99391.67;105373;1256;61633;-54
2023/03/10 04:47:34;;;;;;;3.40;1.10;;;;;;;2.11;66.20;99387.02;105541;1260;73786;-53
2023/03/10 04:50:05;;;;;;;2.00;0.50;;;;;;;2.12;65.79;99392.98;105292;1256;71333;-54
2023/03/10 04:52:32;;;;;;;2.60;0.70;;;;;;;2.12;65.96;99396.95;105379;1256;73640;-54
2023/03/10 04:55:00;;;;;;;2.70;0.80;;;;;;;2.11;66.08;99398.44;105367;1256;60675;-54
2023/03/10 04:57:27;;;;;;;3.00;0.70;;;;;;;2.10;66.07;99401.55;105704;1257;60543;-52
2023/03/10 04:59:54;;;;;;;3.00;0.70;;;;;;;2.19;65.76;99400.67;105128;1260;74605;-54
2023/03/10 05:02:21;;;;;;;3.20;0.70;;;;;;;2.44;65.29;99402.98;105298;1256;71403;-54
2023/03/10 05:04:48;;;;;;;3.50;0.90;;;;;;;2.44;65.35;99403.35;105330;1262;73568;-54
2023/03/10 05:07:15;;;;;;;4.00;0.70;;;;;;;2.48;65.19;99404.13;105314;1256;60453;-54
2023/03/10 05:09:48;;;;;;;3.00;1.00;;;;;;;2.33;65.28;99412.66;105490;1256;60445;-54
2023/03/10 05:12:15;;;;;;;4.70;1.10;;;;;;;2.23;65.54;99424.27;105278;1260;74748;-54
2023/03/10 05:14:43;;;;;;;3.30;0.90;;;;;;;2.27;65.43;99434.64;105403;1256;71242;-54
2023/03/10 05:17:11;;;;;;;4.40;1.00;;;;;;;2.29;65.09;99436.08;105265;1260;73638;-56
2023/03/10 05:19:38;;;;;;;3.80;1.60;;;;;;;2.25;65.09;99436.98;105439;1261;60458;-53
2023/03/10 05:22:10;;;;;;;4.80;1.40;;;;;;;2.18;65.27;99435.50;105339;1256;61111;-54
2023/03/10 05:24:37;;;;;;;3.90;1.00;;;;;;;2.19;65.48;99434.38;105121;1258;74958;-54
2023/03/10 05:27:07;;;;;;;3.60;1.20;;;;;;;2.22;65.60;99434.91;105501;1256;71040;-55
2023/03/10 05:29:37;;;;;;;3.10;0.90;;;;;;;2.32;65.42;99443.33;105610;1256;73644;-51
2023/03/10 05:32:13;;;;;;;5.40;0.80;;;;;;;2.33;65.23;99444.13;105420;1256;60514;-54
2023/03/10 05:34:45;;;;;;;2.90;0.90;;;;;;;2.34;65.32;99445.95;105446;1256;60477;-55
2023/03/10 05:37:12;;;;;;;5.20;1.00;;;;;;;2.35;65.63;99449.34;105426;1260;74705;-54
2023/03/10 05:39:39;;;;;;;5.40;1.80;;;;;;;2.37;65.87;99458.39;105330;1260;70081;-52
2023/03/10 05:42:11;;;;;;;5.10;1.20;;;;;;;2.38;65.51;99467.69;105349;1256;72496;-52
2023/03/10 05:44:38;;;;;;;4.30;1.40;;;;;;;2.46;65.25;99473.27;105356;1261;62121;-53
2023/03/10 05:47:08;;;;;;;5.50;1.50;;;;;;;2.55;64.85;99489.70;105228;1262;60560;-54
2023/03/10 05:49:35;;;;;;;5.20;2.00;;;;;;;2.58;64.43;99501.12;105434;1259;74576;-54
2023/03/10 05:52:05;;;;;;;5.90;1.80;;;;;;;2.60;64.19;99509.33;105438;1256;70003;-54
2023/03/10 05:54:33;;;;;;;3.10;1.20;;;;;;;2.61;63.81;99517.08;105404;1261;73476;-54
2023/03/10 05:57:00;;;;;;;2.80;0.70;;;;;;;2.59;63.45;99523.72;105315;1256;61425;-54
2023/03/10 05:59:27;;;;;;;9.90;2.50;;;;;;;2.57;62.89;99524.92;105425;1256;61283;-54
2023/03/10 06:01:55;;;;;;;4.60;1.40;;;;;;;2.56;62.84;99524.80;105332;1261;74789;-55
2023/03/10 06:04:21;;;;;;;3.00;0.90;;;;;;;2.57;62.24;99527.16;105506;1259;70335;-54
2023/03/10 06:06:50;;;;;;;4.20;0.90;;;;;;;2.61;61.94;99532.29;105288;1257;72513;-55
2023/03/10 06:09:17;;;;;;;3.80;0.90;;;;;;;2.63;62.27;99530.11;108971;1256;60548;-53
2023/03/10 06:11:48;;;;;;;3.20;0.80;;;;;;;2.65;61.98;99529.12;105523;1258;61512;-55
2023/03/10 06:14:15;;;;;;;4.80;1.10;;;;;;;2.68;62.15;99525.48;105201;1260;73804;-54
2023/03/10 06:16:48;;;;;;;4.20;1.30;;;;;;;2.70;62.08;99526.53;108650;1256;71202;-52
2023/03/10 06:19:17;;;;;;;3.00;0.90;;;;;;;2.73;62.13;99533.11;105557;1256;73852;-54
2023/03/10 06:21:44;;;;;;;3.40;0.90;;;;;;;2.74;61.97;99542.90;105350;1260;60558;-54
2023/03/10 06:24:11;;;;;;;3.50;1.00;;;;;;;2.76;62.08;99544.00;105345;1256;61326;-55
2023/03/10 06:26:38;;;;;;;3.50;1.00;;;;;;;2.79;62.04;99546.25;105490;1260;74841;-54
2023/03/10 06:29:06;;;;;;;3.40;0.90;;;;;;;2.82;61.88;99551.45;105469;1259;70021;-56
2023/03/10 06:31:33;;;;;;;3.10;0.80;;;;;;;2.88;61.96;99555.95;105325;1256;73678;-56
2023/03/10 06:34:00;;;;;;;2.10;0.50;;;;;;;3.04;61.57;99552.36;105316;1258;61174;-57
2023/03/10 06:36:31;;;;;;;3.80;0.80;;;;;;;3.32;60.88;99549.91;105191;1256;61233;-56
2023/03/10 06:38:58;;;;;;;2.80;0.50;;;;;;;3.33;60.96;99556.98;105351;1260;76092;-54
2023/03/10 06:41:26;;;;;;;3.60;1.00;;;;;;;3.44;60.74;99554.36;105256;1257;71248;-54
2023/03/10 06:43:54;;;;;;;3.40;1.50;;;;;;;3.54;60.05;99544.36;105508;1259;73636;-54
2023/03/10 06:46:24;;;;;;;2.10;0.70;;;;;;;3.53;59.93;99545.94;105407;1262;60628;-54
2023/03/10 06:48:51;;;;;;;5.50;1.10;;;;;;;3.52;59.55;99546.02;105492;1255;61009;-54
2023/03/10 06:51:18;;;;;;;3.60;0.80;;;;;;;3.52;59.85;99544.13;105415;1260;74647;-56
2023/03/10 06:53:50;;;;;;;3.50;1.10;;;;;;;3.54;59.84;99546.27;105310;1256;71570;-56
2023/03/10 06:56:19;;;;;;;2.10;0.70;;;;;;;3.54;59.89;99545.56;105328;1261;73647;-56
2023/03/10 06:58:48;;;;;;;4.80;1.40;;;;;;;3.56;60.08;99541.31;105393;1256;60590;-56
2023/03/10 07:01:32;;;;;;;3.20;1.00;;;;;;;3.55;59.83;99539.94;105377;1262;61058;-57
2023/03/10 07:04:00;;;;;;;4.40;1.70;;;;;;;3.58;60.00;99538.23;105476;1260;65818;-54
2023/03/10 07:06:30;;;;;;;6.50;1.40;;;;;;;3.63;60.12;99533.04;105485;1256;71100;-55
2023/03/10 07:09:17;;;;;;;3.40;1.00;;;;;;;3.66;59.97;99536.30;105328;1260;65078;-55
2023/03/10 07:11:44;;;;;;;3.00;0.90;;;;;;;3.66;60.01;99531.62;105373;1256;61708;-55
2023/03/10 07:14:11;;;;;;;2.80;0.70;;;;;;;3.67;60.14;99527.43;105435;1257;61025;-55
2023/03/10 07:16:39;;;;;;;2.90;0.90;;;;;;;3.69;60.39;99530.38;105440;1262;74653;-55
2023/03/10 07:19:06;;;;;;;6.20;1.30;;;;;;;3.75;60.55;99532.08;105544;1262;71155;-55
2023/03/10 07:21:35;;;;;;;4.30;0.90;;;;;;;3.82;60.23;99534.21;105373;1256;73645;-55
2023/03/10 07:24:02;;;;;;;4.90;1.00;;;;;;;3.95;59.65;99533.54;105415;1257;62043;-55
2023/03/10 07:26:29;;;;;;;5.40;1.70;;;;;;;4.11;59.48;99537.32;105341;1256;61242;-55
2023/03/10 07:28:57;;;;;;;2.80;0.60;;;;;;;4.28;59.25;99546.82;105464;1260;74763;-55
2023/03/10 07:31:24;;;;;;;3.40;0.80;;;;;;;4.40;59.21;99551.23;105305;1256;71524;-56
2023/03/10 07:33:53;;;;;;;1.70;0.60;;;;;;;4.73;58.70;99561.83;105518;1256;73636;-56
2023/03/10 07:36:22;;;;;;;5.10;1.90;;;;;;;4.69;58.79;99557.58;105313;1256;61371;-56
2023/03/10 07:38:50;;;;;;;3.20;1.20;;;;;;;4.77;58.60;99562.61;105400;1259;61065;-55
2023/03/10 07:41:18;;;;;;;2.60;0.60;;;;;;;4.85;58.19;99560.48;105456;1260;74655;-55
2023/03/10 07:43:46;;;;;;;5.40;2.10;;;;;;;4.92;57.65;99560.19;105402;1256;70998;-56
2023/03/10 07:46:13;;;;;;;3.60;1.10;;;;;;;4.94;57.02;99583.50;105392;1260;72505;-54
2023/03/10 07:48:41;;;;;;;2.50;0.60;;;;;;;4.92;56.91;99603.30;105578;1256;60477;-54
2023/03/10 07:51:08;;;;;;;3.70;1.10;;;;;;;4.89;56.59;99605.73;105460;1256;61090;-54
2023/03/10 07:53:35;;;;;;;3.10;0.80;;;;;;;4.82;56.42;99607.06;105455;1261;74010;-54
2023/03/10 07:56:07;;;;;;;5.90;2.30;;;;;;;4.80;56.37;99606.67;105446;1257;71263;-54
2023/03/10 07:58:34;;;;;;;5.00;0.90;;;;;;;4.82;56.45;99607.79;105411;1257;74067;-54
2023/03/10 08:01:02;;;;;;;5.80;2.30;;;;;;;4.86;56.48;99619.52;105335;1256;60570;-56
2023/03/10 08:03:29;;;;;;;3.10;1.10;;;;;;;4.93;56.06;99618.00;105639;1256;61004;-54
2023/03/10 08:05:58;;;;;;;2.70;1.10;;;;;;;4.99;56.24;99611.31;105310;1260;74623;-55
2023/03/10 08:08:29;;;;;;;5.40;2.00;;;;;;;5.09;56.22;99604.05;105317;1262;71057;-54
2023/03/10 08:11:04;;;;;;;3.50;0.90;;;;;;;5.20;56.06;99598.90;105359;1256;73452;-55
2023/03/10 08:13:32;;;;;;;3.90;1.40;;;;;;;5.31;56.07;99592.69;105652;1260;60452;-55
2023/03/10 08:15:59;;;;;;;3.80;1.30;;;;;;;5.42;55.90;99580.98;105493;1256;60488;-55
2023/03/10 08:18:28;;;;;;;3.80;0.90;;;;;;;5.50;55.76;99581.16;105386;1259;74585;-55
2023/03/10 08:20:56;;;;;;;4.00;1.20;;;;;;;5.53;55.34;99579.17;105539;1257;71551;-56
2023/03/10 08:23:27;;;;;;;5.90;2.70;;;;;;;5.56;55.23;99578.27;105423;1256;73590;-56
2023/03/10 08:25:54;;;;;;;4.20;1.00;;;;;;;5.62;55.20;99579.70;105441;1256;60526;-56
2023/03/10 08:28:21;;;;;;;3.70;0.90;;;;;;;5.72;55.09;99581.81;105395;1256;61051;-54
2023/03/10 08:30:48;;;;;;;4.50;1.30;;;;;;;5.81;55.10;99580.13;105481;1262;74864;-55
2023/03/10 08:33:32;;;;;;;3.90;1.00;;;;;;;5.91;54.95;99588.11;105383;1260;62393;-55
2023/03/10 08:36:11;;;;;;;5.80;2.80;;;;;;;5.93;54.03;99589.66;105470;1261;73860;-56
2023/03/10 08:38:39;;;;;;;5.10;2.20;;;;;;;5.84;53.62;99583.95;105485;1257;60779;-55
2023/03/10 08:41:11;;;;;;;3.90;1.20;;;;;;;5.72;53.96;99579.84;105451;1256;61048;-55
2023/03/10 08:43:38;;;;;;;5.90;2.40;;;;;;;5.68;54.27;99578.12;105551;1260;74674;-55
2023/03/10 08:46:05;;;;;;;3.50;1.10;;;;;;;5.66;54.39;99575.42;105627;1256;72190;-54
2023/03/10 08:48:35;;;;;;;4.60;2.10;;;;;;;5.68;54.44;99563.95;105341;1257;73473;-55
2023/03/10 08:51:02;;;;;;;3.70;1.40;;;;;;;5.70;54.22;99560.56;105369;1256;60466;-55
2023/03/10 08:53:31;;;;;;;6.20;2.50;;;;;;;5.71;54.34;99551.95;105422;1261;60456;-55
2023/03/10 08:55:58;;;;;;;5.60;2.60;;;;;;;5.73;54.41;99552.31;105368;1259;74820;-55
2023/03/10 08:58:25;;;;;;;2.30;0.80;;;;;;;5.78;54.19;99549.66;105335;1256;71228;-55
2023/03/10 09:00:55;;;;;;;3.20;1.40;;;;;;;5.80;53.90;99549.95;105294;1262;73709;-55
2023/03/10 09:03:22;;;;;;;5.30;2.50;;;;;;;5.84;54.17;99552.06;105489;1256;60461;-55
2023/03/10 09:05:50;;;;;;;5.20;2.70;;;;;;;5.91;54.01;99562.52;105321;1257;61034;-54
2023/03/10 09:08:17;;;;;;;6.90;3.10;;;;;;;5.95;53.62;99565.72;105410;1256;73899;-54
2023/03/10 09:10:46;;;;;;;5.30;1.70;;;;;;;5.96;53.65;99568.42;105433;1257;71176;-54
2023/03/10 09:13:13;;;;;;;5.80;3.20;;;;;;;5.96;53.38;99576.58;105250;1256;289737;-54
2023/03/10 09:17:29;;;;;;;5.30;1.70;;;;;;;5.82;54.04;99580.55;102665;1293;600207;-56
2023/03/10 09:19:58;;;;;;;7.00;4.10;;;;;;;6.00;53.35;99578.80;105024;1263;60620;-55
2023/03/10 09:22:26;;;;;;;7.30;2.80;;;;;;;6.02;53.51;99574.73;104910;1264;61131;-56
2023/03/10 09:24:55;;;;;;;10.00;5.90;;;;;;;6.12;53.46;99580.27;105455;1260;73354;-55
2023/03/10 09:27:27;;;;;;;6.10;2.90;;;;;;;6.19;53.35;99583.44;105433;1258;71516;-57
2023/03/10 09:29:55;;;;;;;8.60;3.00;;;;;;;6.19;53.47;99581.55;105286;1258;161328;-56
2023/03/10 09:32:27;;;;;;;8.40;3.60;;;;;;;6.25;53.35;99576.89;105591;1255;60257;-54
2023/03/10 09:34:55;;;;;;;10.50;5.90;;;;;;;6.33;53.33;99581.36;105468;1256;61032;-57
2023/03/10 09:37:24;;;;;;;8.60;5.30;;;;;;;6.35;52.74;99575.66;105442;1254;71937;-56
2023/03/10 09:39:53;;;;;;;7.90;4.20;;;;;;;6.31;52.84;99581.13;105515;1253;71004;-57
2023/03/10 09:42:37;;;;;;;4.20;1.50;;;;;;;6.33;53.33;99594.80;105438;1254;73684;-57
2023/03/10 09:45:16;;;;;;;5.20;2.10;;;;;;;6.42;53.23;99594.29;105600;1258;60529;-57
2023/03/10 09:48:02;;;;;;;7.10;2.50;;;;;;;6.46;53.03;99590.85;105460;1257;61355;-56
2023/03/10 09:50:38;;;;;;;6.80;3.90;;;;;;;6.49;52.81;99585.39;105525;1258;73958;-56
2023/03/10 09:53:11;;;;;;;7.20;3.10;;;;;;;6.55;52.96;99587.87;105484;1258;70152;-56
2023/03/10 09:55:42;;;;;;;4.90;1.40;;;;;;;6.69;52.94;99584.42;105525;1257;72884;-56
2023/03/10 09:58:38;;;;;;;3.80;1.50;;;;;;;6.79;52.68;99584.52;105514;1254;60460;-56
2023/03/10 10:01:14;;;;;;;5.70;3.40;;;;;;;7.04;52.28;99594.41;105367;1254;61045;-56
2023/03/10 10:03:47;;;;;;;;;;;;;;;7.14;52.57;99594.02;105340;1260;74137;-56
2023/03/10 10:06:29;;;;;;;7.80;3.90;;;;;;;7.27;52.61;99596.27;105441;1254;71192;-56
2023/03/10 10:09:08;;;;;;;3.70;1.30;;;;;;;7.41;52.21;99595.36;105359;1255;72877;-55
2023/03/10 10:11:39;;;;;;;5.80;2.00;;;;;;;7.56;51.94;99601.90;105478;1254;60579;-56
2023/03/10 10:14:19;;;;;;;9.30;3.10;;;;;;;7.74;52.03;99598.13;105480;1258;61020;-55
2023/03/10 10:17:20;;;;;;;5.30;3.30;;;;;;;7.89;51.50;99597.10;105610;1257;73785;-55
2023/03/10 10:19:51;;;;;;;5.80;1.40;;;;;;;8.02;51.24;99588.18;105445;1257;63485;-55
2023/03/10 10:22:23;;;;;;;6.50;3.00;;;;;;;8.17;51.05;99580.98;105455;1256;73676;-56
2023/03/10 10:25:08;;;;;;;5.90;3.10;;;;;;;8.34;50.67;99568.45;105482;1254;59752;-56
2023/03/10 10:27:38;;;;;;;4.80;1.40;;;;;;;8.37;50.54;99564.55;105629;1257;59766;-55
2023/03/10 10:30:28;;;;;;;4.60;2.30;;;;;;;8.37;50.67;99567.46;105571;1257;65373;-55
2023/03/10 10:33:07;;;;;;;6.40;2.90;;;;;;;8.43;50.63;99561.61;105375;1254;62762;-55
2023/03/10 10:35:39;;;;;;;7.30;3.20;;;;;;;8.51;50.60;99552.52;105612;1254;65046;-55
2023/03/10 10:38:08;;;;;;;6.10;2.70;;;;;;;8.61;50.31;99553.27;105468;1255;59636;-55
2023/03/10 10:40:49;;;;;;;5.80;3.00;;;;;;;8.67;50.09;99564.81;105556;1256;61248;-55
2023/03/10 10:43:19;;;;;;;6.20;3.40;;;;;;;8.72;50.12;99553.95;105461;1255;65393;-54
2023/03/10 10:45:55;;;;;;;5.60;2.90;;;;;;;8.75;50.10;99552.95;105421;1257;71295;-54
2023/03/10 10:48:38;;;;;;;5.70;3.10;;;;;;;8.76;49.86;99552.20;105561;1254;65032;-54
2023/03/10 10:51:27;;;;;;;6.60;3.10;;;;;;;8.74;49.91;99548.86;105508;1258;59860;-55
2023/03/10 10:54:01;;;;;;;6.20;3.10;;;;;;;8.70;50.18;99547.10;105443;1255;59695;-55
2023/03/10 10:56:29;;;;;;;5.90;3.10;;;;;;;8.68;50.24;99540.08;105524;1254;65202;-55
2023/03/10 10:59:18;;;;;;;8.10;3.20;;;;;;;8.67;50.17;99528.13;105612;1254;62612;-56
2023/03/10 11:01:51;;;;;;;5.80;3.10;;;;;;;8.67;49.68;99515.37;105428;1254;63734;-55
2023/03/10 11:04:20;;;;;;;7.00;2.80;;;;;;;8.62;49.62;99509.67;105482;1259;59558;-55
2023/03/10 11:06:49;;;;;;;5.90;2.80;;;;;;;8.56;49.82;99516.29;105441;1254;59634;-55
2023/03/10 11:09:20;;;;;;;6.40;3.00;;;;;;;8.56;49.98;99517.50;105693;1255;65409;-55
2023/03/10 11:11:52;;;;;;;5.60;3.10;;;;;;;8.58;50.07;99510.21;105613;1258;61399;-56
2023/03/10 11:15:06;;;;;;;8.70;3.30;;;;;;;8.55;50.05;99502.04;105478;1254;64927;-55
2023/03/10 11:18:07;;;;;;;7.60;3.10;;;;;;;8.54;50.02;99498.63;104927;1266;59847;-56
2023/03/10 11:20:58;;;;;;;8.70;3.50;;;;;;;8.55;50.13;99506.08;105470;1254;59561;-56
2023/03/10 11:23:38;;;;;;;7.20;2.50;;;;;;;8.61;50.23;99508.56;105521;1256;65374;-55
2023/03/10 11:26:41;;;;;;;5.80;2.80;;;;;;;8.66;50.14;99512.27;105566;1254;62999;-57
2023/03/10 11:29:28;;;;;;;4.40;2.30;;;;;;;8.71;50.03;99518.86;105281;1255;64741;-55
2023/03/10 11:32:17;;;;;;;5.40;3.00;;;;;;;8.75;49.83;99523.90;105385;1257;59669;-54
2023/03/10 11:34:52;;;;;;;6.50;3.20;;;;;;;8.78;49.78;99516.16;105758;1254;59666;-56
2023/03/10 11:37:29;;;;;;;4.40;1.20;;;;;;;8.78;49.94;99504.84;105442;1259;65375;-57
2023/03/10 11:40:36;;;;;;;6.40;3.60;;;;;;;8.78;49.89;99498.70;105466;1254;62640;-55
2023/03/10 11:43:23;;;;;;;6.60;3.40;;;;;;;8.86;49.67;99500.58;105575;1254;65061;-53
2023/03/10 11:45:53;;;;;;;6.10;3.30;;;;;;;8.89;49.72;99502.45;105490;1254;59548;-56
2023/03/10 11:48:37;;;;;;;5.00;2.70;;;;;;;8.89;50.03;99500.48;105396;1256;59564;-56
2023/03/10 11:51:07;;;;;;;6.90;3.30;;;;;;;8.94;49.90;99492.04;105671;1254;64419;-55
2023/03/10 11:53:49;;;;;;;5.50;2.90;;;;;;;8.98;49.71;99495.73;105520;1254;62685;-55